sensor_id;sensor_type;location;lat;lon;timestamp;temperature;humidity
25450;DHT22;13371;52.080;5.624;2023-11-18T00:01:31;7.50;99.90
25450;DHT22;13371;52.080;5.624;2023-11-18T00:03:58;7.40;99.90
25450;DHT22;13371;52.080;5.624;2023-11-18T00:06:24;7.60;99.90
25450;DHT22;13371;52.080;5.624;2023-11-18T00:08:49;7.70;99.90
25450;DHT22;13371;52.080;5.624;2023-11-18T00:11:15;8.00;99.90
25450;DHT22;13371;52.080;5.624;2023-11-18T00:13:41;8.30;99.90
25450;DHT22;13371;52.080;5.624;2023-11-18T00:16:08;8.20;99.90
25450;DHT22;13371;52.080;5.624;2023-11-18T00:18:38;8.50;99.90
25450;DHT22;13371;52.080;5.624;2023-11-18T00:21:05;8.80;99.90
25450;DHT22;13371;52.080;5.624;2023-11-18T00:23:30;8.70;99.90
25450;DHT22;13371;52.080;5.624;2023-11-18T00:25:56;8.70;99.90
25450;DHT22;13371;52.080;5.624;2023-11-18T00:28:22;8.70;99.90
25450;DHT22;13371;52.080;5.624;2023-11-18T00:30:48;8.90;99.90
25450;DHT22;13371;52.080;5.624;2023-11-18T00:33:14;8.90;99.90
25450;DHT22;13371;52.080;5.624;2023-11-18T00:35:39;9.00;99.90
25450;DHT22;13371;52.080;5.624;2023-11-18T00:38:05;8.80;99.90
25450;DHT22;13371;52.080;5.624;2023-11-18T00:40:30;8.50;99.90
25450;DHT22;13371;52.080;5.624;2023-11-18T00:42:56;8.50;99.90
25450;DHT22;13371;52.080;5.624;2023-11-18T00:45:22;8.50;99.90
25450;DHT22;13371;52.080;5.624;2023-11-18T00:47:48;8.60;99.90
25450;DHT22;13371;52.080;5.624;2023-11-18T00:50:14;8.90;99.90
25450;DHT22;13371;52.080;5.624;2023-11-18T00:52:40;8.90;99.90
25450;DHT22;13371;52.080;5.624;2023-11-18T00:55:10;9.00;99.90
25450;DHT22;13371;52.080;5.624;2023-11-18T00:57:37;9.00;99.90
25450;DHT22;13371;52.080;5.624;2023-11-18T01:00:06;9.00;99.90
25450;DHT22;13371;52.080;5.624;2023-11-18T01:02:31;9.10;99.90
25450;DHT22;13371;52.080;5.624;2023-11-18T01:04:57;9.10;99.90
25450;DHT22;13371;52.080;5.624;2023-11-18T01:07:23;9.10;99.90
25450;DHT22;13371;52.080;5.624;2023-11-18T01:09:48;9.00;99.90
25450;DHT22;13371;52.080;5.624;2023-11-18T01:12:14;8.90;99.90
25450;DHT22;13371;52.080;5.624;2023-11-18T01:14:39;9.00;99.90
25450;DHT22;13371;52.080;5.624;2023-11-18T01:17:07;9.00;99.90
25450;DHT22;13371;52.080;5.624;2023-11-18T01:19:34;8.90;99.90
25450;DHT22;13371;52.080;5.624;2023-11-18T01:22:00;9.00;99.90
25450;DHT22;13371;52.080;5.624;2023-11-18T01:24:26;9.10;99.90
25450;DHT22;13371;52.080;5.624;2023-11-18T01:26:51;9.30;99.90
25450;DHT22;13371;52.080;5.624;2023-11-18T01:29:17;9.40;99.90
25450;DHT22;13371;52.080;5.624;2023-11-18T01:31:43;9.10;99.90
25450;DHT22;13371;52.080;5.624;2023-11-18T01:34:09;9.10;99.90
25450;DHT22;13371;52.080;5.624;2023-11-18T01:36:35;8.70;99.90
25450;DHT22;13371;52.080;5.624;2023-11-18T01:39:00;8.80;99.90
25450;DHT22;13371;52.080;5.624;2023-11-18T01:41:26;8.90;99.90
25450;DHT22;13371;52.080;5.624;2023-11-18T01:43:51;8.50;99.90
25450;DHT22;13371;52.080;5.624;2023-11-18T01:46:19;8.00;99.90
25450;DHT22;13371;52.080;5.624;2023-11-18T01:48:47;8.10;99.90
25450;DHT22;13371;52.080;5.624;2023-11-18T01:51:13;8.40;99.90
25450;DHT22;13371;52.080;5.624;2023-11-18T01:53:42;8.10;99.90
25450;DHT22;13371;52.080;5.624;2023-11-18T01:56:09;8.20;99.90
25450;DHT22;13371;52.080;5.624;2023-11-18T01:58:37;7.90;99.90
25450;DHT22;13371;52.080;5.624;2023-11-18T02:01:03;7.70;99.90
25450;DHT22;13371;52.080;5.624;2023-11-18T02:03:36;7.40;99.90
25450;DHT22;13371;52.080;5.624;2023-11-18T02:06:04;7.60;99.90
25450;DHT22;13371;52.080;5.624;2023-11-18T02:08:31;7.60;99.90
25450;DHT22;13371;52.080;5.624;2023-11-18T02:11:05;7.90;99.90
25450;DHT22;13371;52.080;5.624;2023-11-18T02:13:39;7.80;99.90
25450;DHT22;13371;52.080;5.624;2023-11-18T02:16:07;7.90;99.90
25450;DHT22;13371;52.080;5.624;2023-11-18T02:18:35;7.90;99.90
25450;DHT22;13371;52.080;5.624;2023-11-18T02:21:05;8.20;99.90
25450;DHT22;13371;52.080;5.624;2023-11-18T02:23:33;8.40;99.90
25450;DHT22;13371;52.080;5.624;2023-11-18T02:25:59;8.30;99.90
25450;DHT22;13371;52.080;5.624;2023-11-18T02:28:26;8.30;99.90
25450;DHT22;13371;52.080;5.624;2023-11-18T02:31:10;8.60;99.90
25450;DHT22;13371;52.080;5.624;2023-11-18T02:33:48;8.80;99.90
25450;DHT22;13371;52.080;5.624;2023-11-18T02:36:46;8.80;99.90
25450;DHT22;13371;52.080;5.624;2023-11-18T02:39:19;8.80;99.90
25450;DHT22;13371;52.080;5.624;2023-11-18T02:41:48;8.80;99.90
25450;DHT22;13371;52.080;5.624;2023-11-18T02:44:17;8.60;99.90
25450;DHT22;13371;52.080;5.624;2023-11-18T02:46:45;8.40;99.90
25450;DHT22;13371;52.080;5.624;2023-11-18T02:49:10;8.50;99.90
25450;DHT22;13371;52.080;5.624;2023-11-18T02:51:37;8.60;99.90
25450;DHT22;13371;52.080;5.624;2023-11-18T02:54:08;8.70;99.90
25450;DHT22;13371;52.080;5.624;2023-11-18T02:56:39;8.90;99.90
25450;DHT22;13371;52.080;5.624;2023-11-18T02:59:05;8.90;99.90
25450;DHT22;13371;52.080;5.624;2023-11-18T03:01:34;8.60;99.90
25450;DHT22;13371;52.080;5.624;2023-11-18T03:04:00;8.80;99.90
25450;DHT22;13371;52.080;5.624;2023-11-18T03:06:26;8.40;99.90
25450;DHT22;13371;52.080;5.624;2023-11-18T03:08:52;8.50;99.90
25450;DHT22;13371;52.080;5.624;2023-11-18T03:11:18;8.20;99.90
25450;DHT22;13371;52.080;5.624;2023-11-18T03:13:44;7.80;99.90
25450;DHT22;13371;52.080;5.624;2023-11-18T03:16:11;7.90;99.90
25450;DHT22;13371;52.080;5.624;2023-11-18T03:18:42;8.10;99.90
25450;DHT22;13371;52.080;5.624;2023-11-18T03:21:14;8.00;99.90
25450;DHT22;13371;52.080;5.624;2023-11-18T03:23:40;8.10;99.90
25450;DHT22;13371;52.080;5.624;2023-11-18T03:26:09;8.30;99.90
25450;DHT22;13371;52.080;5.624;2023-11-18T03:28:36;8.50;99.90
25450;DHT22;13371;52.080;5.624;2023-11-18T03:31:05;8.40;99.90
25450;DHT22;13371;52.080;5.624;2023-11-18T03:33:32;8.20;99.90
25450;DHT22;13371;52.080;5.624;2023-11-18T03:35:57;8.20;99.90
25450;DHT22;13371;52.080;5.624;2023-11-18T03:38:23;7.60;99.90
25450;DHT22;13371;52.080;5.624;2023-11-18T03:40:49;7.80;99.90
25450;DHT22;13371;52.080;5.624;2023-11-18T03:43:16;8.10;99.90
25450;DHT22;13371;52.080;5.624;2023-11-18T03:45:42;8.00;99.90
25450;DHT22;13371;52.080;5.624;2023-11-18T03:48:08;7.90;99.90
25450;DHT22;13371;52.080;5.624;2023-11-18T03:50:34;7.90;99.90
25450;DHT22;13371;52.080;5.624;2023-11-18T03:53:00;7.90;99.90
25450;DHT22;13371;52.080;5.624;2023-11-18T03:55:26;8.20;99.90
25450;DHT22;13371;52.080;5.624;2023-11-18T03:57:52;8.40;99.90
25450;DHT22;13371;52.080;5.624;2023-11-18T04:00:18;8.30;99.90
25450;DHT22;13371;52.080;5.624;2023-11-18T04:02:47;7.90;99.90
25450;DHT22;13371;52.080;5.624;2023-11-18T04:05:14;7.70;99.90
25450;DHT22;13371;52.080;5.624;2023-11-18T04:07:39;7.70;99.90
25450;DHT22;13371;52.080;5.624;2023-11-18T04:10:08;7.80;99.90
25450;DHT22;13371;52.080;5.624;2023-11-18T04:12:36;7.50;99.90
25450;DHT22;13371;52.080;5.624;2023-11-18T04:15:03;7.50;99.90
25450;DHT22;13371;52.080;5.624;2023-11-18T04:17:30;7.30;99.90
25450;DHT22;13371;52.080;5.624;2023-11-18T04:19:56;7.40;99.90
25450;DHT22;13371;52.080;5.624;2023-11-18T04:22:22;7.30;99.90
25450;DHT22;13371;52.080;5.624;2023-11-18T04:24:48;7.30;99.90
25450;DHT22;13371;52.080;5.624;2023-11-18T04:27:13;7.60;99.90
25450;DHT22;13371;52.080;5.624;2023-11-18T04:29:39;7.60;99.90
25450;DHT22;13371;52.080;5.624;2023-11-18T04:32:06;7.80;99.90
25450;DHT22;13371;52.080;5.624;2023-11-18T04:34:35;8.00;99.90
25450;DHT22;13371;52.080;5.624;2023-11-18T04:37:02;7.80;99.90
25450;DHT22;13371;52.080;5.624;2023-11-18T04:39:28;7.70;99.90
25450;DHT22;13371;52.080;5.624;2023-11-18T04:41:55;7.50;99.90
25450;DHT22;13371;52.080;5.624;2023-11-18T04:44:22;7.40;99.90
25450;DHT22;13371;52.080;5.624;2023-11-18T04:46:47;7.60;99.90
25450;DHT22;13371;52.080;5.624;2023-11-18T04:49:13;7.90;99.90
25450;DHT22;13371;52.080;5.624;2023-11-18T04:51:38;8.00;99.90
25450;DHT22;13371;52.080;5.624;2023-11-18T04:54:04;8.00;99.90
25450;DHT22;13371;52.080;5.624;2023-11-18T04:56:33;7.90;99.90
25450;DHT22;13371;52.080;5.624;2023-11-18T04:59:01;8.10;99.90
25450;DHT22;13371;52.080;5.624;2023-11-18T05:01:27;8.20;99.90
25450;DHT22;13371;52.080;5.624;2023-11-18T05:03:52;8.00;99.90
25450;DHT22;13371;52.080;5.624;2023-11-18T05:06:18;8.10;99.90
25450;DHT22;13371;52.080;5.624;2023-11-18T05:08:45;8.20;99.90
25450;DHT22;13371;52.080;5.624;2023-11-18T05:11:11;8.40;99.90
25450;DHT22;13371;52.080;5.624;2023-11-18T05:13:38;8.50;99.90
25450;DHT22;13371;52.080;5.624;2023-11-18T05:16:06;8.60;99.90
25450;DHT22;13371;52.080;5.624;2023-11-18T05:18:31;8.30;99.90
25450;DHT22;13371;52.080;5.624;2023-11-18T05:21:02;8.10;99.90
25450;DHT22;13371;52.080;5.624;2023-11-18T05:23:28;8.30;99.90
25450;DHT22;13371;52.080;5.624;2023-11-18T05:25:57;8.10;99.90
25450;DHT22;13371;52.080;5.624;2023-11-18T05:28:23;8.00;99.90
25450;DHT22;13371;52.080;5.624;2023-11-18T05:30:50;7.80;99.90
25450;DHT22;13371;52.080;5.624;2023-11-18T05:33:16;7.70;99.90
25450;DHT22;13371;52.080;5.624;2023-11-18T05:35:46;7.70;99.90
25450;DHT22;13371;52.080;5.624;2023-11-18T05:38:15;7.50;99.90
25450;DHT22;13371;52.080;5.624;2023-11-18T05:40:47;7.80;99.90
25450;DHT22;13371;52.080;5.624;2023-11-18T05:43:25;8.10;99.90
25450;DHT22;13371;52.080;5.624;2023-11-18T05:45:58;8.10;99.90
25450;DHT22;13371;52.080;5.624;2023-11-18T05:48:43;8.20;99.90
25450;DHT22;13371;52.080;5.624;2023-11-18T05:51:09;7.80;99.90
25450;DHT22;13371;52.080;5.624;2023-11-18T05:53:42;8.10;99.90
25450;DHT22;13371;52.080;5.624;2023-11-18T05:56:11;8.30;99.90
25450;DHT22;13371;52.080;5.624;2023-11-18T05:58:36;8.50;99.90
25450;DHT22;13371;52.080;5.624;2023-11-18T06:01:04;8.40;99.90
25450;DHT22;13371;52.080;5.624;2023-11-18T06:03:30;8.30;99.90
25450;DHT22;13371;52.080;5.624;2023-11-18T06:05:56;8.30;99.90
25450;DHT22;13371;52.080;5.624;2023-11-18T06:08:22;8.30;99.90
25450;DHT22;13371;52.080;5.624;2023-11-18T06:10:48;8.30;99.90
25450;DHT22;13371;52.080;5.624;2023-11-18T06:13:14;8.30;99.90
25450;DHT22;13371;52.080;5.624;2023-11-18T06:15:42;8.60;99.90
25450;DHT22;13371;52.080;5.624;2023-11-18T06:18:08;8.60;99.90
25450;DHT22;13371;52.080;5.624;2023-11-18T06:20:34;8.50;99.90
25450;DHT22;13371;52.080;5.624;2023-11-18T06:23:01;8.10;99.90
25450;DHT22;13371;52.080;5.624;2023-11-18T06:25:26;8.10;99.90
25450;DHT22;13371;52.080;5.624;2023-11-18T06:27:52;8.30;99.90
25450;DHT22;13371;52.080;5.624;2023-11-18T06:30:20;8.30;99.90
25450;DHT22;13371;52.080;5.624;2023-11-18T06:32:46;8.20;99.90
25450;DHT22;13371;52.080;5.624;2023-11-18T06:35:14;7.80;99.90
25450;DHT22;13371;52.080;5.624;2023-11-18T06:37:42;7.70;99.90
25450;DHT22;13371;52.080;5.624;2023-11-18T06:40:08;7.90;99.90
25450;DHT22;13371;52.080;5.624;2023-11-18T06:42:45;8.00;99.90
25450;DHT22;13371;52.080;5.624;2023-11-18T06:45:13;8.30;99.90
25450;DHT22;13371;52.080;5.624;2023-11-18T06:47:39;8.30;99.90
25450;DHT22;13371;52.080;5.624;2023-11-18T06:50:09;8.00;99.90
25450;DHT22;13371;52.080;5.624;2023-11-18T06:52:37;8.00;99.90
25450;DHT22;13371;52.080;5.624;2023-11-18T06:55:04;8.00;99.90
25450;DHT22;13371;52.080;5.624;2023-11-18T06:57:30;7.80;99.90
25450;DHT22;13371;52.080;5.624;2023-11-18T06:59:56;7.70;99.90
25450;DHT22;13371;52.080;5.624;2023-11-18T07:02:22;7.70;99.90
25450;DHT22;13371;52.080;5.624;2023-11-18T07:04:47;7.70;99.90
25450;DHT22;13371;52.080;5.624;2023-11-18T07:07:13;7.60;99.90
25450;DHT22;13371;52.080;5.624;2023-11-18T07:09:39;7.60;99.90
25450;DHT22;13371;52.080;5.624;2023-11-18T07:12:05;8.10;99.90
25450;DHT22;13371;52.080;5.624;2023-11-18T07:14:30;8.10;99.90
25450;DHT22;13371;52.080;5.624;2023-11-18T07:16:56;8.20;99.90
25450;DHT22;13371;52.080;5.624;2023-11-18T07:19:22;8.40;99.90
25450;DHT22;13371;52.080;5.624;2023-11-18T07:21:49;8.30;99.90
25450;DHT22;13371;52.080;5.624;2023-11-18T07:24:15;8.10;99.90
25450;DHT22;13371;52.080;5.624;2023-11-18T07:26:42;8.00;99.90
25450;DHT22;13371;52.080;5.624;2023-11-18T07:29:09;8.30;99.90
25450;DHT22;13371;52.080;5.624;2023-11-18T07:31:35;8.30;99.90
25450;DHT22;13371;52.080;5.624;2023-11-18T07:34:04;8.30;99.90
25450;DHT22;13371;52.080;5.624;2023-11-18T07:36:31;8.10;99.90
25450;DHT22;13371;52.080;5.624;2023-11-18T07:38:58;8.00;99.90
25450;DHT22;13371;52.080;5.624;2023-11-18T07:41:27;8.20;99.90
25450;DHT22;13371;52.080;5.624;2023-11-18T07:43:53;8.40;99.90
25450;DHT22;13371;52.080;5.624;2023-11-18T07:46:20;8.20;99.90
25450;DHT22;13371;52.080;5.624;2023-11-18T07:48:52;8.10;99.90
25450;DHT22;13371;52.080;5.624;2023-11-18T07:51:21;8.30;99.90
25450;DHT22;13371;52.080;5.624;2023-11-18T07:53:48;8.00;99.90
25450;DHT22;13371;52.080;5.624;2023-11-18T07:56:14;8.40;99.90
25450;DHT22;13371;52.080;5.624;2023-11-18T07:58:42;8.00;99.90
25450;DHT22;13371;52.080;5.624;2023-11-18T08:01:11;7.80;99.90
25450;DHT22;13371;52.080;5.624;2023-11-18T08:03:37;7.60;99.90
25450;DHT22;13371;52.080;5.624;2023-11-18T08:06:04;8.00;99.90
25450;DHT22;13371;52.080;5.624;2023-11-18T08:08:32;8.20;99.90
25450;DHT22;13371;52.080;5.624;2023-11-18T08:10:58;8.30;99.90
25450;DHT22;13371;52.080;5.624;2023-11-18T08:13:24;8.10;99.90
25450;DHT22;13371;52.080;5.624;2023-11-18T08:15:49;8.30;99.90
25450;DHT22;13371;52.080;5.624;2023-11-18T08:18:15;8.30;99.90
25450;DHT22;13371;52.080;5.624;2023-11-18T08:20:41;8.10;99.90
25450;DHT22;13371;52.080;5.624;2023-11-18T08:23:08;8.10;99.90
25450;DHT22;13371;52.080;5.624;2023-11-18T08:25:34;8.20;99.90
25450;DHT22;13371;52.080;5.624;2023-11-18T08:28:01;8.10;99.90
25450;DHT22;13371;52.080;5.624;2023-11-18T08:30:27;8.20;99.90
25450;DHT22;13371;52.080;5.624;2023-11-18T08:32:53;8.00;99.90
25450;DHT22;13371;52.080;5.624;2023-11-18T08:35:18;7.80;99.90
25450;DHT22;13371;52.080;5.624;2023-11-18T08:37:47;7.80;99.90
25450;DHT22;13371;52.080;5.624;2023-11-18T08:40:13;7.90;99.90
25450;DHT22;13371;52.080;5.624;2023-11-18T08:42:49;7.70;99.90
25450;DHT22;13371;52.080;5.624;2023-11-18T08:47:45;7.80;99.90
25450;DHT22;13371;52.080;5.624;2023-11-18T08:50:17;7.80;99.90
25450;DHT22;13371;52.080;5.624;2023-11-18T08:52:44;7.90;99.90
25450;DHT22;13371;52.080;5.624;2023-11-18T08:55:18;7.70;99.90
25450;DHT22;13371;52.080;5.624;2023-11-18T08:57:51;7.70;99.90
25450;DHT22;13371;52.080;5.624;2023-11-18T09:00:32;7.90;99.90
25450;DHT22;13371;52.080;5.624;2023-11-18T09:03:27;7.80;99.90
25450;DHT22;13371;52.080;5.624;2023-11-18T09:06:04;8.00;99.90
25450;DHT22;13371;52.080;5.624;2023-11-18T09:08:43;8.30;99.90
25450;DHT22;13371;52.080;5.624;2023-11-18T09:11:14;8.40;99.90
25450;DHT22;13371;52.080;5.624;2023-11-18T09:13:48;8.30;99.90
25450;DHT22;13371;52.080;5.624;2023-11-18T09:16:15;8.20;99.90
25450;DHT22;13371;52.080;5.624;2023-11-18T09:18:42;7.70;99.90
25450;DHT22;13371;52.080;5.624;2023-11-18T09:21:11;7.40;99.90
25450;DHT22;13371;52.080;5.624;2023-11-18T09:23:41;7.50;99.90
25450;DHT22;13371;52.080;5.624;2023-11-18T09:26:07;7.70;99.90
25450;DHT22;13371;52.080;5.624;2023-11-18T09:28:34;7.60;99.90
25450;DHT22;13371;52.080;5.624;2023-11-18T09:31:06;7.80;99.90
25450;DHT22;13371;52.080;5.624;2023-11-18T09:33:36;7.80;99.90
25450;DHT22;13371;52.080;5.624;2023-11-18T09:36:04;7.70;99.90
25450;DHT22;13371;52.080;5.624;2023-11-18T09:38:36;7.90;99.90
25450;DHT22;13371;52.080;5.624;2023-11-18T09:41:04;7.90;99.90
25450;DHT22;13371;52.080;5.624;2023-11-18T09:43:39;8.20;99.90
25450;DHT22;13371;52.080;5.624;2023-11-18T09:46:15;8.30;99.90
25450;DHT22;13371;52.080;5.624;2023-11-18T09:51:41;8.30;99.90
25450;DHT22;13371;52.080;5.624;2023-11-18T09:54:24;8.20;99.90
25450;DHT22;13371;52.080;5.624;2023-11-18T09:57:19;8.10;99.90
25450;DHT22;13371;52.080;5.624;2023-11-18T10:00:07;8.10;99.90
25450;DHT22;13371;52.080;5.624;2023-11-18T10:03:05;8.00;99.90
25450;DHT22;13371;52.080;5.624;2023-11-18T10:05:33;8.30;99.90
25450;DHT22;13371;52.080;5.624;2023-11-18T10:08:02;8.30;99.90
25450;DHT22;13371;52.080;5.624;2023-11-18T10:10:31;8.30;99.90
25450;DHT22;13371;52.080;5.624;2023-11-18T10:13:02;8.40;99.90
25450;DHT22;13371;52.080;5.624;2023-11-18T10:15:30;8.40;99.90
25450;DHT22;13371;52.080;5.624;2023-11-18T10:17:57;8.70;99.90
25450;DHT22;13371;52.080;5.624;2023-11-18T10:20:48;8.70;99.90
25450;DHT22;13371;52.080;5.624;2023-11-18T10:23:18;8.80;99.90
25450;DHT22;13371;52.080;5.624;2023-11-18T10:25:48;8.70;99.90
25450;DHT22;13371;52.080;5.624;2023-11-18T10:28:24;8.70;99.90
25450;DHT22;13371;52.080;5.624;2023-11-18T10:30:50;8.50;99.90
25450;DHT22;13371;52.080;5.624;2023-11-18T10:33:17;8.60;99.90
25450;DHT22;13371;52.080;5.624;2023-11-18T10:35:52;8.70;99.90
25450;DHT22;13371;52.080;5.624;2023-11-18T10:38:21;8.60;99.90
25450;DHT22;13371;52.080;5.624;2023-11-18T10:40:53;8.70;99.90
25450;DHT22;13371;52.080;5.624;2023-11-18T10:43:18;8.80;99.90
25450;DHT22;13371;52.080;5.624;2023-11-18T10:45:44;8.90;99.90
25450;DHT22;13371;52.080;5.624;2023-11-18T10:48:12;8.50;99.90
25450;DHT22;13371;52.080;5.624;2023-11-18T10:50:42;8.60;99.90
25450;DHT22;13371;52.080;5.624;2023-11-18T10:53:08;8.80;99.90
25450;DHT22;13371;52.080;5.624;2023-11-18T10:55:40;8.70;99.90
25450;DHT22;13371;52.080;5.624;2023-11-18T10:58:06;8.80;99.90
25450;DHT22;13371;52.080;5.624;2023-11-18T11:00:52;8.80;99.90
25450;DHT22;13371;52.080;5.624;2023-11-18T11:03:25;8.70;99.90
25450;DHT22;13371;52.080;5.624;2023-11-18T11:05:51;8.70;99.90
25450;DHT22;13371;52.080;5.624;2023-11-18T11:08:20;8.60;99.90
25450;DHT22;13371;52.080;5.624;2023-11-18T11:10:46;8.80;99.90
25450;DHT22;13371;52.080;5.624;2023-11-18T11:13:14;8.60;99.90
25450;DHT22;13371;52.080;5.624;2023-11-18T11:15:43;8.70;99.90
25450;DHT22;13371;52.080;5.624;2023-11-18T11:18:20;8.70;99.90
25450;DHT22;13371;52.080;5.624;2023-11-18T11:21:15;8.70;99.90
25450;DHT22;13371;52.080;5.624;2023-11-18T11:26:50;8.80;99.90
25450;DHT22;13371;52.080;5.624;2023-11-18T11:29:36;8.50;99.90
25450;DHT22;13371;52.080;5.624;2023-11-18T11:32:38;8.60;99.90
25450;DHT22;13371;52.080;5.624;2023-11-18T11:35:09;8.30;99.90
25450;DHT22;13371;52.080;5.624;2023-11-18T11:37:44;8.30;99.90
25450;DHT22;13371;52.080;5.624;2023-11-18T11:40:12;8.10;99.90
25450;DHT22;13371;52.080;5.624;2023-11-18T11:42:42;8.20;99.90
25450;DHT22;13371;52.080;5.624;2023-11-18T11:45:09;8.10;99.90
25450;DHT22;13371;52.080;5.624;2023-11-18T11:47:49;8.10;99.90
25450;DHT22;13371;52.080;5.624;2023-11-18T11:50:25;8.20;99.90
25450;DHT22;13371;52.080;5.624;2023-11-18T11:53:06;8.10;99.90
25450;DHT22;13371;52.080;5.624;2023-11-18T11:55:46;8.20;99.90
25450;DHT22;13371;52.080;5.624;2023-11-18T11:58:33;8.30;99.90
25450;DHT22;13371;52.080;5.624;2023-11-18T12:03:43;8.40;99.90
25450;DHT22;13371;52.080;5.624;2023-11-18T12:06:17;8.30;99.90
25450;DHT22;13371;52.080;5.624;2023-11-18T12:08:50;8.40;99.90
25450;DHT22;13371;52.080;5.624;2023-11-18T12:11:17;8.30;99.90
25450;DHT22;13371;52.080;5.624;2023-11-18T12:14:03;8.10;99.90
25450;DHT22;13371;52.080;5.624;2023-11-18T12:17:04;8.20;99.90
25450;DHT22;13371;52.080;5.624;2023-11-18T12:19:35;8.40;99.90
25450;DHT22;13371;52.080;5.624;2023-11-18T12:22:18;8.50;99.90
25450;DHT22;13371;52.080;5.624;2023-11-18T12:33:05;8.70;99.90
25450;DHT22;13371;52.080;5.624;2023-11-18T12:41:34;8.30;99.90
25450;DHT22;13371;52.080;5.624;2023-11-18T12:47:05;8.60;99.90
25450;DHT22;13371;52.080;5.624;2023-11-18T12:49:44;8.60;99.90
25450;DHT22;13371;52.080;5.624;2023-11-18T12:52:13;8.60;99.90
25450;DHT22;13371;52.080;5.624;2023-11-18T12:54:40;8.50;99.90
25450;DHT22;13371;52.080;5.624;2023-11-18T12:57:12;8.70;99.90
25450;DHT22;13371;52.080;5.624;2023-11-18T12:59:42;8.60;99.90
25450;DHT22;13371;52.080;5.624;2023-11-18T13:02:11;8.60;99.90
25450;DHT22;13371;52.080;5.624;2023-11-18T13:04:43;8.60;99.90
25450;DHT22;13371;52.080;5.624;2023-11-18T13:07:16;8.80;99.90
25450;DHT22;13371;52.080;5.624;2023-11-18T13:09:47;8.80;99.90
25450;DHT22;13371;52.080;5.624;2023-11-18T13:12:14;8.70;99.90
25450;DHT22;13371;52.080;5.624;2023-11-18T13:14:45;8.50;99.90
25450;DHT22;13371;52.080;5.624;2023-11-18T13:17:15;8.30;99.90
25450;DHT22;13371;52.080;5.624;2023-11-18T13:19:42;8.40;99.90
25450;DHT22;13371;52.080;5.624;2023-11-18T13:22:10;8.50;99.90
25450;DHT22;13371;52.080;5.624;2023-11-18T13:24:37;8.50;99.90
25450;DHT22;13371;52.080;5.624;2023-11-18T13:27:05;8.90;99.90
25450;DHT22;13371;52.080;5.624;2023-11-18T13:29:36;9.10;99.90
25450;DHT22;13371;52.080;5.624;2023-11-18T13:32:01;9.10;99.90
25450;DHT22;13371;52.080;5.624;2023-11-18T13:34:30;9.10;99.90
25450;DHT22;13371;52.080;5.624;2023-11-18T13:36:58;8.90;99.90
25450;DHT22;13371;52.080;5.624;2023-11-18T13:39:24;8.80;99.90
25450;DHT22;13371;52.080;5.624;2023-11-18T13:41:53;8.80;99.90
25450;DHT22;13371;52.080;5.624;2023-11-18T13:44:35;8.70;99.90
25450;DHT22;13371;52.080;5.624;2023-11-18T13:47:01;8.50;99.90
25450;DHT22;13371;52.080;5.624;2023-11-18T13:49:28;8.50;99.90
25450;DHT22;13371;52.080;5.624;2023-11-18T13:51:58;8.70;99.90
25450;DHT22;13371;52.080;5.624;2023-11-18T13:54:24;8.80;99.90
25450;DHT22;13371;52.080;5.624;2023-11-18T13:56:51;8.80;99.90
25450;DHT22;13371;52.080;5.624;2023-11-18T13:59:26;8.70;99.90
25450;DHT22;13371;52.080;5.624;2023-11-18T14:01:54;8.70;99.90
25450;DHT22;13371;52.080;5.624;2023-11-18T14:04:23;8.80;99.90
25450;DHT22;13371;52.080;5.624;2023-11-18T14:06:52;9.00;99.90
25450;DHT22;13371;52.080;5.624;2023-11-18T14:09:19;9.10;99.90
25450;DHT22;13371;52.080;5.624;2023-11-18T14:11:47;9.00;99.90
25450;DHT22;13371;52.080;5.624;2023-11-18T14:14:14;9.00;99.90
25450;DHT22;13371;52.080;5.624;2023-11-18T14:16:39;8.90;99.90
25450;DHT22;13371;52.080;5.624;2023-11-18T14:19:05;8.60;99.90
25450;DHT22;13371;52.080;5.624;2023-11-18T14:21:32;8.80;99.90
25450;DHT22;13371;52.080;5.624;2023-11-18T14:23:57;8.90;99.90
25450;DHT22;13371;52.080;5.624;2023-11-18T14:26:27;9.10;99.90
25450;DHT22;13371;52.080;5.624;2023-11-18T14:28:53;9.00;99.90
25450;DHT22;13371;52.080;5.624;2023-11-18T14:31:18;8.90;99.90
25450;DHT22;13371;52.080;5.624;2023-11-18T14:33:44;9.00;99.90
25450;DHT22;13371;52.080;5.624;2023-11-18T14:36:10;8.80;99.90
25450;DHT22;13371;52.080;5.624;2023-11-18T14:38:36;8.90;99.90
25450;DHT22;13371;52.080;5.624;2023-11-18T14:41:03;9.00;99.90
25450;DHT22;13371;52.080;5.624;2023-11-18T14:43:30;8.90;99.90
25450;DHT22;13371;52.080;5.624;2023-11-18T14:45:55;9.10;99.90
25450;DHT22;13371;52.080;5.624;2023-11-18T14:48:21;9.00;99.90
25450;DHT22;13371;52.080;5.624;2023-11-18T14:50:47;9.00;99.90
25450;DHT22;13371;52.080;5.624;2023-11-18T14:53:12;9.10;99.90
25450;DHT22;13371;52.080;5.624;2023-11-18T14:55:39;9.00;99.90
25450;DHT22;13371;52.080;5.624;2023-11-18T14:58:04;8.90;99.90
25450;DHT22;13371;52.080;5.624;2023-11-18T15:00:32;8.60;99.90
25450;DHT22;13371;52.080;5.624;2023-11-18T15:02:58;8.70;99.90
25450;DHT22;13371;52.080;5.624;2023-11-18T15:05:24;8.80;99.90
25450;DHT22;13371;52.080;5.624;2023-11-18T15:07:51;8.90;99.90
25450;DHT22;13371;52.080;5.624;2023-11-18T15:10:19;9.00;99.90
25450;DHT22;13371;52.080;5.624;2023-11-18T15:12:49;8.90;99.90
25450;DHT22;13371;52.080;5.624;2023-11-18T15:15:21;8.80;99.90
25450;DHT22;13371;52.080;5.624;2023-11-18T15:17:48;9.00;99.90
25450;DHT22;13371;52.080;5.624;2023-11-18T15:20:14;9.20;99.90
25450;DHT22;13371;52.080;5.624;2023-11-18T15:22:41;9.00;99.90
25450;DHT22;13371;52.080;5.624;2023-11-18T15:25:08;9.00;99.90
25450;DHT22;13371;52.080;5.624;2023-11-18T15:27:43;8.90;99.90
25450;DHT22;13371;52.080;5.624;2023-11-18T15:30:13;9.00;99.90
25450;DHT22;13371;52.080;5.624;2023-11-18T15:32:43;8.90;99.90
25450;DHT22;13371;52.080;5.624;2023-11-18T15:35:10;8.90;99.90
25450;DHT22;13371;52.080;5.624;2023-11-18T15:37:37;9.00;99.90
25450;DHT22;13371;52.080;5.624;2023-11-18T15:40:05;9.10;99.90
25450;DHT22;13371;52.080;5.624;2023-11-18T15:42:43;9.20;99.90
25450;DHT22;13371;52.080;5.624;2023-11-18T15:45:15;9.10;99.90
25450;DHT22;13371;52.080;5.624;2023-11-18T15:47:42;9.10;99.90
25450;DHT22;13371;52.080;5.624;2023-11-18T15:50:09;9.20;99.90
25450;DHT22;13371;52.080;5.624;2023-11-18T15:52:44;9.10;99.90
25450;DHT22;13371;52.080;5.624;2023-11-18T15:55:10;9.20;99.90
25450;DHT22;13371;52.080;5.624;2023-11-18T15:57:40;9.00;99.90
25450;DHT22;13371;52.080;5.624;2023-11-18T16:00:07;8.90;99.90
25450;DHT22;13371;52.080;5.624;2023-11-18T16:02:41;9.10;99.90
25450;DHT22;13371;52.080;5.624;2023-11-18T16:05:08;9.20;99.90
25450;DHT22;13371;52.080;5.624;2023-11-18T16:07:34;9.20;99.90
25450;DHT22;13371;52.080;5.624;2023-11-18T16:10:00;9.40;99.90
25450;DHT22;13371;52.080;5.624;2023-11-18T16:12:26;9.40;99.90
25450;DHT22;13371;52.080;5.624;2023-11-18T16:14:55;9.40;99.90
25450;DHT22;13371;52.080;5.624;2023-11-18T16:17:21;9.50;99.90
25450;DHT22;13371;52.080;5.624;2023-11-18T16:19:47;9.40;99.90
25450;DHT22;13371;52.080;5.624;2023-11-18T16:22:13;9.40;99.90
25450;DHT22;13371;52.080;5.624;2023-11-18T16:24:39;9.40;99.90